Terminal Aerodrome Forecast
Issued by NWS

Home | Current Version | Previous Version | Text Only | Print | Product List | Glossary Off
Versions: 1 2 3 4 5 6 7 8 9 10 11 12

000
FTUS45 KGGW 161120
TAFGDV
TAF
KGDV 161120Z 1612/1712 12006KT P6SM BKN120
     FM171000 25005KT P6SM BKN110=

USA.gov is the U.S. government's official web portal to all federal, state and local government web resources and services.